Time;durP1;ratioP1;P1;durP2;ratioP2;P2;SDS_P1;SDS_P2;PMS_P1;PMS_P2;Temp;Humidity;BMP_temperature;BMP_pressure;BME280_temperature;BME280_humidity;BME280_pressure;Samples;Min_cycle;Max_cycle;Signal;HPM_P1;HPM_P2
2022/06/28 00:00:00;;;;;;;22.52;4.78;;;;;;;21.33;65.48;92674.34;5051585;28;20473;-77
2022/06/28 00:02:26;;;;;;;21.98;5.28;;;;;;;21.30;65.55;92664.41;5058183;28;20041;-77
2022/06/28 00:04:52;;;;;;;25.00;4.18;;;;;;;21.25;65.39;92659.34;5052242;28;20096;-77
2022/06/28 00:07:17;;;;;;;22.15;4.45;;;;;;;21.23;65.41;92648.25;5052315;28;20053;-77
2022/06/28 00:09:43;;;;;;;34.85;6.05;;;;;;;21.19;65.31;92647.44;5052115;28;20576;-77
2022/06/28 00:12:09;;;;;;;22.08;4.88;;;;;;;21.15;65.39;92643.94;5052341;28;20036;-77
2022/06/28 00:17:19;;;;;;;16.77;4.82;;;;;;;21.09;65.95;92640.00;5048965;28;20049;-77
2022/06/28 00:19:45;;;;;;;25.73;5.15;;;;;;;21.08;65.81;92649.09;5051681;28;20064;-77
2022/06/28 00:22:11;;;;;;;29.23;4.78;;;;;;;21.06;66.05;92648.69;5041230;28;20037;-77
2022/06/28 00:24:36;;;;;;;18.30;4.50;;;;;;;21.03;65.91;92644.81;5051528;28;20029;-77
2022/06/28 00:27:02;;;;;;;21.27;4.90;;;;;;;21.01;66.35;92641.72;5052479;28;20037;-77
2022/06/28 00:29:27;;;;;;;30.55;4.38;;;;;;;20.99;66.48;92634.09;5052584;28;20064;-77
2022/06/28 00:31:53;;;;;;;21.13;4.82;;;;;;;20.98;66.30;92631.75;5051527;28;20035;-77
2022/06/28 00:34:19;;;;;;;24.67;4.60;;;;;;;20.97;65.77;92646.19;5035165;28;20041;-77
2022/06/28 00:36:44;;;;;;;23.77;4.68;;;;;;;20.97;66.02;92652.28;5049999;28;20069;-77
2022/06/28 00:39:11;;;;;;;24.20;5.15;;;;;;;20.97;66.05;92651.53;5034977;28;20151;-77
2022/06/28 00:41:37;;;;;;;18.88;5.05;;;;;;;21.00;65.94;92642.84;5052742;28;20503;-77
2022/06/28 00:44:03;;;;;;;19.92;5.00;;;;;;;21.04;65.88;92640.25;5050386;28;20103;-77
2022/06/28 00:46:33;;;;;;;19.85;4.88;;;;;;;21.07;65.75;92648.31;5051289;28;20410;-77
2022/06/28 00:48:59;;;;;;;21.60;4.68;;;;;;;21.08;65.93;92641.88;5052091;28;20044;-77
2022/06/28 00:51:25;;;;;;;21.10;5.07;;;;;;;21.10;65.79;92636.22;5038604;28;20072;-77
2022/06/28 00:53:50;;;;;;;19.27;5.57;;;;;;;21.11;65.85;92629.75;5043941;28;20494;-77
2022/06/28 00:56:16;;;;;;;18.70;4.88;;;;;;;21.13;65.42;92627.53;5039544;28;20538;-77
2022/06/28 00:58:42;;;;;;;25.95;5.15;;;;;;;21.14;66.00;92627.19;5031251;28;20053;-77
2022/06/28 01:01:08;;;;;;;24.88;4.55;;;;;;;21.15;65.90;92627.97;5032515;28;20033;-77
2022/06/28 01:03:35;;;;;;;23.90;5.05;;;;;;;21.16;65.73;92624.94;5032027;28;20380;-77
2022/06/28 01:06:01;;;;;;;35.25;5.07;;;;;;;21.17;65.47;92628.38;5050497;28;20491;-77
2022/06/28 01:08:27;;;;;;;22.52;4.97;;;;;;;21.17;65.39;92631.81;5050706;28;20066;-77
2022/06/28 01:10:55;;;;;;;22.60;4.85;;;;;;;21.18;65.62;92637.91;5049808;28;20513;-77
2022/06/28 01:13:23;;;;;;;22.35;5.10;;;;;;;21.19;65.99;92636.78;5047990;28;20403;-77
2022/06/28 01:15:50;;;;;;;23.08;4.90;;;;;;;21.20;65.69;92627.69;5034242;28;20456;-77
2022/06/28 01:18:16;;;;;;;20.60;4.55;;;;;;;21.21;65.46;92629.22;5052076;28;20112;-77
2022/06/28 01:20:45;;;;;;;21.23;5.30;;;;;;;21.23;65.39;92626.19;5047117;28;20032;-77
2022/06/28 01:23:23;;;;;;;22.67;4.60;;;;;;;21.25;65.86;92622.06;5037333;28;20415;-77
2022/06/28 01:25:56;;;;;;;25.35;5.18;;;;;;;21.26;65.90;92626.28;5047597;28;20037;-77
2022/06/28 01:28:32;;;;;;;18.33;4.82;;;;;;;21.22;66.36;92622.78;5047542;28;20152;-77
2022/06/28 01:31:06;;;;;;;24.95;4.78;;;;;;;21.19;66.58;92626.91;5034402;28;20521;-77
2022/06/28 01:33:36;;;;;;;24.70;5.55;;;;;;;21.16;67.21;92638.25;5051877;28;20127;-77
2022/06/28 01:36:07;;;;;;;33.47;5.13;;;;;;;21.13;67.94;92638.19;5050581;28;20041;-77
2022/06/28 01:38:33;;;;;;;23.20;4.93;;;;;;;21.10;67.86;92642.31;5034292;28;20478;-77
2022/06/28 01:41:01;;;;;;;23.15;5.07;;;;;;;21.08;67.47;92646.44;5050658;28;20040;-77
2022/06/28 01:43:28;;;;;;;28.13;6.22;;;;;;;21.08;67.67;92649.88;5050624;28;20444;-77
2022/06/28 01:45:54;;;;;;;18.58;5.10;;;;;;;21.06;68.16;92648.69;5033817;28;20033;-77
2022/06/28 01:48:20;;;;;;;19.50;4.80;;;;;;;21.05;68.64;92647.13;5050850;28;20029;-77
2022/06/28 01:50:57;;;;;;;24.08;5.72;;;;;;;21.04;68.71;92657.00;5050710;28;20033;-77
2022/06/28 01:53:23;;;;;;;22.95;5.25;;;;;;;21.04;69.29;92657.00;5049331;28;20528;-77
2022/06/28 01:56:00;;;;;;;22.00;4.90;;;;;;;21.03;69.59;92652.81;5052045;28;20556;-77
2022/06/28 01:58:47;;;;;;;14.93;4.60;;;;;;;21.04;69.08;92648.25;5054240;28;20045;-77
2022/06/28 02:01:13;;;;;;;18.55;5.32;;;;;;;21.03;69.26;92652.81;5054455;28;20211;-77
2022/06/28 02:03:41;;;;;;;21.73;4.95;;;;;;;21.03;69.73;92655.47;5052976;28;20035;-77
2022/06/28 02:06:29;;;;;;;19.55;5.18;;;;;;;20.99;69.40;92658.03;5055265;28;20755;-77
2022/06/28 02:09:00;;;;;;;28.63;4.90;;;;;;;21.00;69.31;92661.47;5054292;28;20040;-77
2022/06/28 02:11:33;;;;;;;26.33;5.10;;;;;;;20.99;69.15;92659.94;5053692;28;20071;-77
2022/06/28 02:13:59;;;;;;;20.15;5.60;;;;;;;21.00;68.66;92662.22;5053674;28;20036;-77
2022/06/28 02:16:24;;;;;;;27.70;5.38;;;;;;;21.03;68.33;92665.31;5053679;28;20029;-77
2022/06/28 02:18:51;;;;;;;21.60;4.95;;;;;;;21.07;68.14;92671.50;5053535;28;20124;-77
2022/06/28 02:21:16;;;;;;;25.85;6.38;;;;;;;21.07;68.95;92679.47;5054971;28;20064;-77
2022/06/28 02:23:42;;;;;;;20.90;5.07;;;;;;;21.09;69.03;92685.22;5053233;28;20510;-77
2022/06/28 02:26:11;;;;;;;33.20;5.07;;;;;;;21.05;69.03;92676.38;5053670;28;20542;-77
2022/06/28 02:28:37;;;;;;;16.35;4.43;;;;;;;21.04;68.85;92688.94;5053545;28;20418;-77
2022/06/28 02:31:11;;;;;;;14.35;4.63;;;;;;;21.04;68.88;92677.53;5053847;28;20044;-77
2022/06/28 02:33:37;;;;;;;19.38;5.50;;;;;;;21.05;68.67;92658.53;5047207;28;20573;-77
2022/06/28 02:41:32;;;;;;;23.38;5.07;;;;;;;21.03;70.17;92644.03;5054425;28;20037;-77
2022/06/28 02:43:57;;;;;;;19.85;5.10;;;;;;;20.99;70.27;92642.06;5036953;28;20044;-77
2022/06/28 02:46:23;;;;;;;26.73;5.20;;;;;;;20.91;70.08;92643.03;5053899;28;20407;-77
2022/06/28 02:48:49;;;;;;;16.70;5.50;;;;;;;20.88;70.62;92646.38;5052277;28;20037;-77
2022/06/28 02:51:15;;;;;;;21.48;5.13;;;;;;;20.85;70.44;92644.44;5053021;28;20112;-77
2022/06/28 02:53:41;;;;;;;29.15;5.30;;;;;;;20.79;70.67;92635.94;5049700;28;20076;-77
2022/06/28 02:56:06;;;;;;;19.63;4.85;;;;;;;20.76;70.39;92633.16;5039638;28;20499;-77
2022/06/28 02:58:32;;;;;;;23.92;5.35;;;;;;;20.75;70.52;92621.00;5053593;28;20088;-77
2022/06/28 03:00:59;;;;;;;16.48;4.55;;;;;;;20.75;70.19;92618.34;5036072;28;20037;-77
2022/06/28 03:03:25;;;;;;;18.38;5.18;;;;;;;20.73;69.52;92610.69;5036366;28;20082;-77
2022/06/28 03:05:51;;;;;;;20.38;5.00;;;;;;;20.75;69.46;92603.16;5052199;28;20040;-77
2022/06/28 03:08:16;;;;;;;17.60;5.60;;;;;;;20.75;69.73;92599.72;5047491;28;20036;-77
2022/06/28 03:10:43;;;;;;;20.75;5.60;;;;;;;20.71;70.33;92598.88;5052357;28;20033;-77
2022/06/28 03:13:08;;;;;;;23.88;5.15;;;;;;;20.66;71.17;92599.13;5049627;28;20098;-77
2022/06/28 03:15:34;;;;;;;19.27;4.65;;;;;;;20.59;70.93;92592.53;5049018;28;20469;-77
2022/06/28 03:18:00;;;;;;;19.00;5.25;;;;;;;20.55;71.02;92596.97;5043457;28;20075;-77
2022/06/28 03:20:26;;;;;;;26.52;5.18;;;;;;;20.52;71.28;92594.25;5051871;28;20403;-77
2022/06/28 03:22:52;;;;;;;25.15;5.43;;;;;;;20.49;70.80;92590.41;5053428;28;20391;-77
2022/06/28 03:25:18;;;;;;;26.15;5.35;;;;;;;20.45;71.72;92600.16;5052123;28;20040;-77
2022/06/28 03:27:44;;;;;;;22.58;5.50;;;;;;;20.43;71.37;92598.97;5050026;28;20026;-77
2022/06/28 03:30:10;;;;;;;28.60;5.85;;;;;;;20.41;70.95;92596.66;5054133;28;20029;-77
2022/06/28 03:32:41;;;;;;;20.80;5.38;;;;;;;20.42;70.69;92595.53;5038026;28;20039;-77
2022/06/28 03:35:08;;;;;;;27.15;6.07;;;;;;;20.42;70.38;92602.72;5034993;28;20502;-77
2022/06/28 03:37:35;;;;;;;30.27;5.60;;;;;;;20.41;70.23;92599.31;5051494;28;20132;-77
2022/06/28 03:40:03;;;;;;;20.95;5.32;;;;;;;20.43;70.27;92612.28;5035190;28;20466;-77
2022/06/28 03:42:29;;;;;;;20.90;5.53;;;;;;;20.43;69.83;92612.28;5052193;28;20028;-77
2022/06/28 03:44:55;;;;;;;18.63;4.88;;;;;;;20.44;69.88;92625.19;5052465;28;20052;-77
2022/06/28 03:47:21;;;;;;;22.38;5.03;;;;;;;20.48;69.81;92623.41;5036462;28;20033;-77
2022/06/28 03:50:19;;;;;;;21.52;5.60;;;;;;;20.52;69.41;92626.16;5052815;28;20482;-77
2022/06/28 03:52:51;;;;;;;26.58;5.45;;;;;;;20.56;69.30;92630.47;5052110;28;20040;-77
2022/06/28 03:55:45;;;;;;;34.15;5.05;;;;;;;20.61;69.32;92637.41;5047724;28;20418;-77
2022/06/28 03:58:12;;;;;;;22.38;4.90;;;;;;;20.64;68.87;92633.28;5051425;28;20457;-77
2022/06/28 04:00:37;;;;;;;21.95;5.30;;;;;;;20.68;68.98;92628.81;5033953;28;20028;-77
2022/06/28 04:03:03;;;;;;;22.95;5.45;;;;;;;20.71;69.17;92622.81;5032200;28;20101;-77
2022/06/28 04:05:38;;;;;;;21.05;4.65;;;;;;;20.74;69.20;92620.25;5032231;28;20458;-77
2022/06/28 04:08:04;;;;;;;18.25;4.60;;;;;;;20.78;68.90;92628.28;5031786;28;20369;-77
2022/06/28 04:10:44;;;;;;;20.75;4.40;;;;;;;20.80;68.79;92631.38;5025260;28;20051;-77
2022/06/28 04:13:15;;;;;;;26.73;5.05;;;;;;;20.82;68.79;92623.81;5046798;28;20047;-77
2022/06/28 04:15:41;;;;;;;25.00;5.03;;;;;;;20.83;68.52;92622.72;5034954;28;20045;-77
2022/06/28 04:18:10;;;;;;;26.27;5.32;;;;;;;20.84;68.53;92629.56;5034663;28;20029;-77
2022/06/28 04:20:54;;;;;;;27.52;5.53;;;;;;;20.83;68.83;92633.34;5052486;28;20052;-77
2022/06/28 04:23:19;;;;;;;31.85;5.65;;;;;;;20.82;68.67;92634.47;5050731;28;20037;-77
2022/06/28 04:25:45;;;;;;;25.67;4.95;;;;;;;20.81;68.51;92635.59;5048043;28;20049;-77
2022/06/28 04:28:40;;;;;;;25.10;5.72;;;;;;;20.80;69.20;92636.69;5024601;28;20083;-77
2022/06/28 04:31:10;;;;;;;28.35;4.88;;;;;;;20.80;69.21;92636.69;5055289;28;20094;-77
2022/06/28 04:33:37;;;;;;;28.77;5.60;;;;;;;20.79;69.59;92629.84;5066218;28;20494;-77
2022/06/28 04:36:03;;;;;;;26.23;5.65;;;;;;;20.78;70.50;92631.72;5019224;28;20025;-77
2022/06/28 04:38:31;;;;;;;23.05;5.32;;;;;;;20.79;71.33;92632.50;5051927;28;20048;-77
2022/06/28 04:41:08;;;;;;;29.02;5.80;;;;;;;20.81;71.73;92629.50;5048235;28;20091;-77
2022/06/28 04:44:06;;;;;;;32.30;6.15;;;;;;;20.81;71.41;92632.94;5046619;28;20098;-77
2022/06/28 04:46:38;;;;;;;27.88;5.07;;;;;;;20.82;71.29;92623.81;5051093;28;20143;-77
2022/06/28 04:49:06;;;;;;;24.63;5.30;;;;;;;20.84;70.64;92616.25;5034632;28;20041;-77
2022/06/28 04:51:53;;;;;;;22.00;5.47;;;;;;;20.87;70.54;92623.53;5036397;28;20483;-77
2022/06/28 04:54:42;;;;;;;26.30;5.20;;;;;;;20.90;70.60;92620.22;5044780;28;20372;-78
2022/06/28 04:57:19;;;;;;;28.08;5.57;;;;;;;20.91;70.46;92616.41;5048545;28;20069;-77
2022/06/28 04:59:50;;;;;;;26.63;4.97;;;;;;;20.96;70.90;92613.50;5031243;28;20080;-77
2022/06/28 05:02:30;;;;;;;27.55;5.70;;;;;;;21.00;71.07;92611.66;5031684;28;20059;-77
2022/06/28 05:04:57;;;;;;;24.98;5.45;;;;;;;21.06;71.25;92606.09;5043169;28;20025;-77
2022/06/28 05:07:28;;;;;;;25.35;5.22;;;;;;;21.12;71.26;92612.66;5032506;28;20036;-77
2022/06/28 05:09:53;;;;;;;19.98;4.72;;;;;;;21.22;70.19;92612.13;5031466;28;20038;-77
2022/06/28 05:12:19;;;;;;;31.33;5.47;;;;;;;21.33;70.14;92610.44;5048183;28;20454;-77
2022/06/28 05:14:45;;;;;;;23.20;6.05;;;;;;;21.45;70.72;92617.56;5035172;28;20145;-77
2022/06/28 05:17:12;;;;;;;29.73;5.43;;;;;;;21.62;70.35;92611.06;5049711;28;20048;-77
2022/06/28 05:19:38;;;;;;;28.08;5.80;;;;;;;21.76;70.49;92611.31;5035126;28;20063;-77
2022/06/28 05:22:04;;;;;;;27.67;5.95;;;;;;;21.86;70.56;92623.28;5050909;28;20551;-77
2022/06/28 05:24:35;;;;;;;21.33;5.13;;;;;;;21.87;68.25;92624.06;5047874;28;20598;-77
2022/06/28 05:27:06;;;;;;;40.07;6.13;;;;;;;21.71;69.85;92619.59;5049276;28;20094;-77
2022/06/28 05:29:38;;;;;;;47.20;7.32;;;;;;;21.66;70.50;92627.88;5053369;28;20422;-77
2022/06/28 05:32:04;;;;;;;44.25;7.35;;;;;;;21.59;70.00;92633.03;5054563;28;20045;-77
2022/06/28 05:34:30;;;;;;;25.58;6.00;;;;;;;21.62;70.49;92630.47;5051608;28;20036;-77
2022/06/28 05:36:57;;;;;;;22.10;5.00;;;;;;;21.69;69.98;92618.41;5057840;28;20033;-77
2022/06/28 05:39:23;;;;;;;24.70;5.90;;;;;;;21.75;69.71;92625.75;5051699;28;20410;-77
2022/06/28 05:41:48;;;;;;;26.45;6.05;;;;;;;21.82;70.20;92627.78;5035009;28;20102;-77
2022/06/28 05:44:16;;;;;;;21.90;5.97;;;;;;;21.89;71.59;92632.47;5041090;28;20125;-77
2022/06/28 05:46:43;;;;;;;39.50;6.70;;;;;;;21.92;71.37;92637.09;5049645;28;20037;-77
2022/06/28 05:49:10;;;;;;;34.78;5.60;;;;;;;21.90;70.68;92610.03;5055758;28;20037;-77
2022/06/28 05:51:35;;;;;;;22.15;5.03;;;;;;;21.88;70.02;92597.03;5056447;28;20516;-77
2022/06/28 05:54:02;;;;;;;23.30;5.32;;;;;;;21.96;69.70;92611.28;5052700;28;20044;-80
2022/06/28 05:56:49;;;;;;;29.70;6.18;;;;;;;21.97;70.59;92628.81;5064442;28;20064;-79
2022/06/28 05:59:14;;;;;;;29.52;5.10;;;;;;;21.92;71.98;92615.78;5069213;28;20055;-79
2022/06/28 06:01:40;;;;;;;28.33;6.13;;;;;;;21.87;72.10;92594.75;5056509;28;20272;-79
2022/06/28 06:04:06;;;;;;;30.70;6.47;;;;;;;21.79;72.57;92594.59;5054559;28;20112;-80
2022/06/28 06:06:32;;;;;;;25.30;6.20;;;;;;;21.71;72.78;92608.16;5066948;28;20063;-79
2022/06/28 06:08:59;;;;;;;39.42;8.32;;;;;;;21.54;76.84;92634.09;5057233;28;20124;-79
2022/06/28 06:11:25;;;;;;;31.23;7.03;;;;;;;21.25;77.27;92638.03;5060810;28;20123;-79
2022/06/28 06:13:51;;;;;;;25.80;6.63;;;;;;;21.23;78.27;92621.66;5060934;28;20037;-80
2022/06/28 06:16:17;;;;;;;40.58;7.25;;;;;;;21.39;78.51;92614.38;5067724;28;20037;-79
2022/06/28 06:18:42;;;;;;;25.77;5.90;;;;;;;21.85;77.42;92627.06;5063557;28;20017;-79
2022/06/28 06:21:09;;;;;;;33.25;6.40;;;;;;;22.63;77.07;92638.34;5055278;28;20040;-79
2022/06/28 06:23:35;;;;;;;21.35;5.95;;;;;;;22.98;74.84;92628.53;5049927;28;20034;-78
2022/06/28 06:26:03;;;;;;;31.35;7.43;;;;;;;23.46;72.64;92618.94;5050583;28;20487;-80
2022/06/28 06:28:30;;;;;;;27.92;6.70;;;;;;;23.74;71.26;92620.38;5037181;28;20037;-77
2022/06/28 06:30:56;;;;;;;33.30;6.55;;;;;;;23.44;71.00;92634.53;5056344;28;20069;-78
2022/06/28 06:33:44;;;;;;;35.22;7.35;;;;;;;23.11;71.67;92650.50;5046091;28;20068;-78
2022/06/28 06:36:25;;;;;;;34.67;7.30;;;;;;;22.78;73.36;92641.97;5061253;28;20036;-78
2022/06/28 06:38:51;;;;;;;30.63;7.03;;;;;;;22.27;77.46;92650.31;5037715;28;20414;-79
2022/06/28 06:41:16;;;;;;;29.70;7.13;;;;;;;22.01;78.31;92619.75;5051126;28;20045;-80
2022/06/28 06:43:47;;;;;;;30.65;8.35;;;;;;;21.98;80.23;92601.03;5029231;28;20036;-81
2022/06/28 06:46:14;;;;;;;25.63;7.32;;;;;;;22.02;80.45;92604.53;5032487;28;20132;-80
2022/06/28 06:48:41;;;;;;;35.30;7.68;;;;;;;22.12;80.34;92619.94;5038264;28;20562;-80
2022/06/28 06:51:08;;;;;;;27.90;7.55;;;;;;;22.42;79.99;92617.41;5061407;28;20041;-80
2022/06/28 06:53:33;;;;;;;33.70;7.57;;;;;;;22.43;79.20;92596.88;5053099;28;20041;-80
2022/06/28 06:55:59;;;;;;;36.30;7.55;;;;;;;22.58;78.71;92585.28;5019975;28;20048;-80
2022/06/28 06:58:24;;;;;;;37.40;7.40;;;;;;;22.90;79.45;92584.97;5074731;28;20045;-80
2022/06/28 07:00:50;;;;;;;28.60;6.90;;;;;;;22.95;77.83;92599.91;5059720;28;20502;-80
2022/06/28 07:03:16;;;;;;;32.53;8.23;;;;;;;23.34;73.98;92607.69;5031775;28;20074;-80
2022/06/28 07:05:42;;;;;;;25.83;8.15;;;;;;;23.05;77.31;92597.41;5037110;28;20112;-80
2022/06/28 07:08:08;;;;;;;28.35;8.27;;;;;;;22.66;77.47;92602.16;5058458;28;20037;-79
2022/06/28 07:10:42;;;;;;;24.45;7.35;;;;;;;22.34;79.00;92591.78;5052771;28;20056;-79
2022/06/28 07:13:07;;;;;;;35.17;8.77;;;;;;;22.28;82.03;92587.09;5048718;28;20056;-79
2022/06/28 07:15:33;;;;;;;29.23;8.48;;;;;;;22.34;83.25;92591.00;5020356;28;20167;-79
2022/06/28 07:17:58;;;;;;;30.65;8.20;;;;;;;22.38;83.38;92586.47;5053996;28;20041;-79
2022/06/28 07:20:24;;;;;;;39.80;8.68;;;;;;;22.39;83.46;92593.38;5050672;28;20095;-79
2022/06/28 07:22:50;;;;;;;41.88;7.85;;;;;;;22.38;83.19;92581.16;5041499;28;20398;-79
2022/06/28 07:25:19;;;;;;;43.15;8.00;;;;;;;22.34;81.37;92569.69;5054598;28;20036;-79
2022/06/28 07:27:44;;;;;;;30.27;8.10;;;;;;;22.23;80.32;92559.59;5032498;28;20128;-79
2022/06/28 07:30:11;;;;;;;30.40;7.43;;;;;;;22.15;79.07;92559.81;5053539;28;20021;-79
2022/06/28 07:32:36;;;;;;;28.90;7.55;;;;;;;21.91;74.06;92563.59;5035215;28;20589;-79
2022/06/28 07:35:03;;;;;;;23.63;7.40;;;;;;;21.41;77.53;92536.84;5057045;28;20065;-79
2022/06/28 07:37:29;;;;;;;32.80;8.20;;;;;;;21.32;78.34;92538.91;5045353;28;20047;-79
2022/06/28 07:39:55;;;;;;;29.95;8.57;;;;;;;21.21;81.99;92568.78;5034617;28;20566;-79
2022/06/28 07:42:50;;;;;;;28.40;8.55;;;;;;;21.10;82.96;92598.97;5022792;28;20423;-79
2022/06/28 07:45:19;;;;;;;34.80;8.15;;;;;;;21.08;81.48;92638.47;5047913;28;20052;-79
2022/06/28 07:47:47;;;;;;;37.50;9.60;;;;;;;21.05;85.18;92703.75;5049422;28;20025;-79
2022/06/28 07:53:02;;;;;;;33.92;9.45;;;;;;;19.89;87.37;92743.78;5043295;28;20063;-79
2022/06/28 07:55:39;;;;;;;28.45;10.70;;;;;;;19.71;87.48;92701.53;5047658;28;20140;-79
2022/06/28 07:58:14;;;;;;;22.98;8.75;;;;;;;19.59;86.64;92682.97;5051189;28;20047;-79
2022/06/28 08:00:39;;;;;;;30.05;8.73;;;;;;;19.47;88.50;92659.13;5035046;28;20041;-79
2022/06/28 08:03:13;;;;;;;26.08;7.25;;;;;;;19.32;87.75;92673.88;5050660;28;20029;-79
2022/06/28 08:05:39;;;;;;;16.55;4.55;;;;;;;19.14;81.62;92678.66;5052452;28;20055;-79
2022/06/28 08:08:05;;;;;;;23.10;5.10;;;;;;;19.13;80.73;92682.41;5064363;28;20037;-79
2022/06/28 08:10:33;;;;;;;14.50;4.22;;;;;;;19.12;79.75;92697.56;5052094;28;20078;-78
2022/06/28 08:13:01;;;;;;;17.92;4.95;;;;;;;19.09;79.80;92703.56;5049148;28;20033;-79
2022/06/28 08:15:26;;;;;;;17.73;4.30;;;;;;;19.19;77.74;92718.22;5051188;28;20036;-79
2022/06/28 08:17:54;;;;;;;14.57;4.95;;;;;;;19.23;76.87;92700.53;5055574;28;20033;-79
2022/06/28 08:20:20;;;;;;;16.00;4.40;;;;;;;19.34;75.90;92708.78;5054455;28;20048;-79
2022/06/28 08:22:46;;;;;;;21.88;5.70;;;;;;;19.49;79.25;92715.31;5052437;28;20456;-79
2022/06/28 08:25:11;;;;;;;23.45;5.32;;;;;;;19.64;78.50;92729.75;5051156;28;20437;-79
2022/06/28 08:27:38;;;;;;;25.83;5.00;;;;;;;19.72;76.27;92766.06;5052360;28;20036;-79
2022/06/28 08:30:06;;;;;;;24.98;6.60;;;;;;;19.56;80.14;92760.63;5049128;28;20482;-79
2022/06/28 08:32:31;;;;;;;19.23;5.93;;;;;;;19.38;80.91;92762.00;5049402;28;20479;-79
2022/06/28 08:34:57;;;;;;;20.00;7.07;;;;;;;19.69;80.83;92766.72;5049283;28;20121;-79
2022/06/28 08:37:22;;;;;;;28.90;6.45;;;;;;;19.70;80.33;92762.97;5042287;28;20033;-79
2022/06/28 08:39:48;;;;;;;22.92;7.75;;;;;;;19.72;80.98;92766.84;5048516;28;20037;-80
2022/06/28 08:42:19;;;;;;;18.95;6.72;;;;;;;19.74;81.79;92753.97;5043142;28;20386;-79
2022/06/28 08:44:47;;;;;;;25.38;8.88;;;;;;;19.85;82.67;92742.91;5054756;28;20029;-79
2022/06/28 08:47:15;;;;;;;28.25;6.68;;;;;;;19.89;83.17;92739.22;5035739;28;20033;-80
2022/06/28 08:49:59;;;;;;;27.77;6.68;;;;;;;19.95;84.04;92745.09;5042051;28;20516;-82
2022/06/28 08:52:25;;;;;;;18.45;6.43;;;;;;;19.99;81.41;92743.28;5056452;28;20037;-79
2022/06/28 08:54:52;;;;;;;17.42;5.65;;;;;;;19.99;80.83;92745.94;5047978;28;20115;-79
2022/06/28 08:57:19;;;;;;;22.38;5.75;;;;;;;19.99;80.18;92716.72;5068964;28;20527;-80
2022/06/28 08:59:49;;;;;;;19.10;5.65;;;;;;;20.02;80.18;92716.06;5054079;28;20036;-79
2022/06/28 09:02:16;;;;;;;27.95;6.47;;;;;;;20.03;81.03;92722.91;5049166;28;20064;-78
2022/06/28 09:04:51;;;;;;;24.65;5.75;;;;;;;20.05;82.42;92714.59;5042795;28;20033;-80
2022/06/28 09:07:16;;;;;;;16.98;5.35;;;;;;;20.10;83.62;92707.13;5045091;28;20030;-78
2022/06/28 09:09:43;;;;;;;19.63;6.00;;;;;;;20.17;83.56;92699.38;5055104;28;20124;-80
2022/06/28 09:12:09;;;;;;;24.30;5.93;;;;;;;20.22;82.06;92700.22;5054238;28;20061;-79
2022/06/28 09:14:34;;;;;;;26.35;5.80;;;;;;;20.25;81.93;92692.34;5045691;28;20045;-78
2022/06/28 09:17:28;;;;;;;17.88;6.38;;;;;;;20.27;80.12;92699.97;5052644;28;20037;-78
2022/06/28 09:20:05;;;;;;;20.88;5.97;;;;;;;20.31;79.10;92700.81;5050139;28;20032;-78
2022/06/28 09:22:37;;;;;;;21.05;5.97;;;;;;;20.32;78.21;92692.50;5044211;28;20040;-78
2022/06/28 09:25:08;;;;;;;33.13;6.32;;;;;;;20.32;78.19;92697.84;5040933;28;20513;-77
2022/06/28 09:27:39;;;;;;;27.13;7.25;;;;;;;20.30;76.10;92699.28;5036512;28;20033;-77
2022/06/28 09:30:12;;;;;;;30.77;7.00;;;;;;;20.27;77.04;92706.06;5037532;28;20033;-78
2022/06/28 09:32:39;;;;;;;21.52;6.15;;;;;;;20.24;79.21;92684.69;5053264;28;20041;-77
2022/06/28 09:35:10;;;;;;;27.30;6.43;;;;;;;20.21;79.23;92648.94;5047812;28;20171;-78
2022/06/28 09:37:36;;;;;;;24.13;6.43;;;;;;;20.21;76.35;92640.97;5040849;28;20033;-78
2022/06/28 09:40:22;;;;;;;27.40;7.35;;;;;;;20.27;75.96;92657.47;5049057;28;20026;-77
2022/06/28 09:43:07;;;;;;;35.03;7.13;;;;;;;20.35;74.43;92683.09;5033396;28;20082;-77
2022/06/28 09:45:38;;;;;;;31.73;6.57;;;;;;;20.44;77.10;92696.97;5041297;28;20037;-77
2022/06/28 09:48:05;;;;;;;27.33;7.22;;;;;;;20.25;78.48;92702.97;5031090;28;20038;-77
2022/06/28 09:50:38;;;;;;;22.83;7.75;;;;;;;20.12;79.21;92704.91;5039688;28;20041;-77
2022/06/28 09:53:05;;;;;;;30.25;6.07;;;;;;;20.05;80.11;92686.13;5037554;28;20053;-78
2022/06/28 09:55:32;;;;;;;23.98;7.32;;;;;;;19.95;81.20;92684.75;5045828;28;20068;-78
2022/06/28 09:58:01;;;;;;;23.73;7.15;;;;;;;19.75;78.91;92691.03;5050949;28;20043;-77
2022/06/28 10:00:29;;;;;;;27.20;7.47;;;;;;;19.78;79.94;92689.59;5044513;28;20032;-77
2022/06/28 10:02:58;;;;;;;22.88;6.68;;;;;;;19.68;81.79;92691.59;5036514;28;20037;-82
2022/06/28 10:05:24;;;;;;;23.95;6.85;;;;;;;19.98;80.77;92693.91;5038506;28;20163;-81
2022/06/28 10:07:50;;;;;;;26.05;6.10;;;;;;;19.89;79.06;92701.28;5036805;28;20045;-79
2022/06/28 10:10:16;;;;;;;30.55;6.53;;;;;;;19.73;76.72;92715.25;5042207;28;20048;-80
2022/06/28 10:15:36;;;;;;;23.90;6.60;;;;;;;19.59;82.00;92749.38;5065889;28;20044;-81
2022/06/28 10:18:19;;;;;;;23.13;6.07;;;;;;;19.56;82.33;92761.41;5069671;28;20124;-78
2022/06/28 10:20:46;;;;;;;27.10;6.70;;;;;;;19.51;83.42;92760.88;5040020;28;20029;-79
2022/06/28 10:23:37;;;;;;;29.83;6.72;;;;;;;19.39;84.18;92755.59;5052783;28;20044;-77
2022/06/28 10:26:32;;;;;;;30.55;6.47;;;;;;;19.25;84.81;92737.34;5057998;28;20025;-78
2022/06/28 10:29:06;;;;;;;26.52;6.78;;;;;;;19.21;85.58;92726.63;5049953;28;20041;-79
2022/06/28 10:31:40;;;;;;;25.63;6.80;;;;;;;19.12;85.84;92725.97;5068668;28;20515;-81
2022/06/28 10:34:08;;;;;;;32.08;7.38;;;;;;;19.09;86.54;92746.00;5038314;28;20033;-76
2022/06/28 10:36:44;;;;;;;25.88;7.78;;;;;;;19.11;89.99;92749.06;5055579;28;20025;-77
2022/06/28 10:39:25;;;;;;;25.58;7.00;;;;;;;19.14;90.34;92758.28;5047462;28;20398;-77
2022/06/28 10:42:05;;;;;;;27.73;7.70;;;;;;;19.16;90.23;92755.25;5064485;28;20467;-77
2022/06/28 10:44:31;;;;;;;33.05;7.93;;;;;;;19.19;91.36;92762.56;5048563;28;20277;-76
2022/06/28 10:47:06;;;;;;;22.15;7.82;;;;;;;19.18;92.84;92768.97;5049842;28;20025;-77
2022/06/28 10:49:46;;;;;;;34.53;8.55;;;;;;;19.21;89.43;92774.41;5054853;28;20033;-80
2022/06/28 10:52:25;;;;;;;24.38;7.50;;;;;;;18.98;90.60;92765.31;5055425;28;20390;-77
2022/06/28 10:54:51;;;;;;;21.20;6.72;;;;;;;18.81;91.35;92761.00;5058109;28;20041;-81
2022/06/28 10:57:41;;;;;;;22.83;7.78;;;;;;;18.76;94.44;92769.94;5050761;28;20550;-81
2022/06/28 11:00:20;;;;;;;26.40;7.97;;;;;;;18.80;95.01;92778.81;5054845;28;20044;-77
2022/06/28 11:02:59;;;;;;;30.15;7.10;;;;;;;18.63;91.82;92795.63;5041230;28;20030;-78
2022/06/28 11:05:48;;;;;;;25.05;7.47;;;;;;;18.59;91.20;92800.03;5041989;28;20029;-81
2022/06/28 11:08:54;;;;;;;22.50;7.78;;;;;;;18.52;92.48;92787.31;5037812;28;20162;-79
2022/06/28 11:11:20;;;;;;;28.98;7.72;;;;;;;18.63;89.60;92792.22;5046392;28;20033;-78
2022/06/28 11:14:35;;;;;;;26.92;7.10;;;;;;;18.62;88.96;92802.06;5056994;28;20115;-79
2022/06/28 11:17:22;;;;;;;27.23;7.38;;;;;;;18.66;89.54;92807.47;5037747;28;20457;-78
2022/06/28 11:19:51;;;;;;;18.35;7.68;;;;;;;18.62;88.76;92806.56;5048891;28;20035;-79
2022/06/28 11:22:21;;;;;;;32.60;7.82;;;;;;;18.52;91.71;92784.69;5061770;28;20489;-79
2022/06/28 11:24:48;;;;;;;31.63;7.50;;;;;;;18.36;93.16;92786.41;5043008;28;20021;-79
2022/06/28 11:27:20;;;;;;;32.50;7.60;;;;;;;18.41;92.83;92786.19;5041630;28;20120;-79
2022/06/28 11:29:52;;;;;;;24.33;7.47;;;;;;;18.47;87.95;92795.50;5037393;28;20049;-80
2022/06/28 11:32:26;;;;;;;27.33;7.03;;;;;;;18.49;85.68;92789.88;5048519;28;20040;-80
2022/06/28 11:34:54;;;;;;;24.80;7.82;;;;;;;18.57;84.48;92793.53;5068659;28;20071;-80
2022/06/28 11:37:19;;;;;;;28.67;6.90;;;;;;;18.63;84.28;92792.22;5059750;28;20032;-80
2022/06/28 11:39:51;;;;;;;35.78;7.45;;;;;;;18.67;84.83;92782.50;5077238;28;20051;-79
2022/06/28 11:42:16;;;;;;;36.90;8.18;;;;;;;18.70;84.62;92766.69;5062514;28;20045;-79
2022/06/28 11:44:42;;;;;;;24.30;7.13;;;;;;;18.76;83.50;92771.81;5056563;28;20029;-79
2022/06/28 11:47:10;;;;;;;30.98;7.18;;;;;;;18.82;84.32;92752.72;5054572;28;20033;-80
2022/06/28 11:49:35;;;;;;;21.73;7.53;;;;;;;18.89;84.39;92725.63;5054895;28;20111;-80